sensor_id;sensor_type;location;lat;lon;timestamp;pressure;altitude;pressure_sealevel;temperature;humidity
28628;BME280;15815;46.760;19.604;2023-05-25T00:01:57;100402.22;;;18.05;87.01
28628;BME280;15815;46.760;19.604;2023-05-25T00:04:22;100390.97;;;17.89;86.86
28628;BME280;15815;46.760;19.604;2023-05-25T00:06:48;100386.19;;;17.86;86.09
28628;BME280;15815;46.760;19.604;2023-05-25T00:09:14;100390.47;;;17.78;86.90
28628;BME280;15815;46.760;19.604;2023-05-25T00:11:39;100404.84;;;17.87;86.15
28628;BME280;15815;46.760;19.604;2023-05-25T00:14:05;100405.03;;;17.80;87.12
28628;BME280;15815;46.760;19.604;2023-05-25T00:16:31;100401.63;;;17.72;87.72
28628;BME280;15815;46.760;19.604;2023-05-25T00:18:57;100393.78;;;17.76;87.25
28628;BME280;15815;46.760;19.604;2023-05-25T00:21:23;100411.44;;;17.84;87.48
28628;BME280;15815;46.760;19.604;2023-05-25T00:23:48;100406.66;;;17.81;87.31
28628;BME280;15815;46.760;19.604;2023-05-25T00:26:14;100408.69;;;17.80;87.69
28628;BME280;15815;46.760;19.604;2023-05-25T00:28:40;100412.09;;;17.75;88.17
28628;BME280;15815;46.760;19.604;2023-05-25T00:31:05;100399.41;;;17.64;89.13
28628;BME280;15815;46.760;19.604;2023-05-25T00:33:31;100408.25;;;17.82;88.32
28628;BME280;15815;46.760;19.604;2023-05-25T00:35:57;100405.03;;;17.80;87.72
28628;BME280;15815;46.760;19.604;2023-05-25T00:38:23;100422.88;;;17.80;87.75
28628;BME280;15815;46.760;19.604;2023-05-25T00:40:54;100419.81;;;17.75;88.58
28628;BME280;15815;46.760;19.604;2023-05-25T00:43:20;100406.34;;;17.63;88.75
28628;BME280;15815;46.760;19.604;2023-05-25T00:45:49;100419.22;;;17.67;88.78
28628;BME280;15815;46.760;19.604;2023-05-25T00:48:18;100419.78;;;17.62;89.09
28628;BME280;15815;46.760;19.604;2023-05-25T00:50:44;100422.59;;;17.62;88.47
28628;BME280;15815;46.760;19.604;2023-05-25T00:53:12;100410.38;;;17.49;88.73
28628;BME280;15815;46.760;19.604;2023-05-25T00:58:32;100421.41;;;17.47;88.37
28628;BME280;15815;46.760;19.604;2023-05-25T01:00:59;100434.03;;;17.46;90.05
28628;BME280;15815;46.760;19.604;2023-05-25T01:03:27;100437.97;;;17.36;90.56
28628;BME280;15815;46.760;19.604;2023-05-25T01:05:56;100445.34;;;17.33;91.63
28628;BME280;15815;46.760;19.604;2023-05-25T01:08:23;100434.13;;;17.42;90.59
28628;BME280;15815;46.760;19.604;2023-05-25T01:10:51;100419.91;;;17.42;90.68
28628;BME280;15815;46.760;19.604;2023-05-25T01:13:18;100431.41;;;17.51;90.86
28628;BME280;15815;46.760;19.604;2023-05-25T01:15:48;100416.97;;;17.46;90.98
28628;BME280;15815;46.760;19.604;2023-05-25T01:18:16;100425.56;;;17.58;91.23
28628;BME280;15815;46.760;19.604;2023-05-25T01:21:19;100416.41;;;17.51;93.77
28628;BME280;15815;46.760;19.604;2023-05-25T01:26:43;100428.41;;;17.58;92.75
28628;BME280;15815;46.760;19.604;2023-05-25T01:29:11;100427.72;;;17.54;92.32
28628;BME280;15815;46.760;19.604;2023-05-25T01:31:38;100434.78;;;17.63;92.31
28628;BME280;15815;46.760;19.604;2023-05-25T01:34:05;100431.03;;;17.66;92.37
28628;BME280;15815;46.760;19.604;2023-05-25T01:36:31;100441.16;;;17.67;92.44
28628;BME280;15815;46.760;19.604;2023-05-25T01:38:58;100439.31;;;17.60;93.78
28628;BME280;15815;46.760;19.604;2023-05-25T01:41:24;100442.84;;;17.64;93.20
28628;BME280;15815;46.760;19.604;2023-05-25T01:43:52;100443.19;;;17.66;94.24
28628;BME280;15815;46.760;19.604;2023-05-25T01:46:34;100431.94;;;17.63;97.34
28628;BME280;15815;46.760;19.604;2023-05-25T01:51:55;100444.19;;;17.59;98.30
28628;BME280;15815;46.760;19.604;2023-05-25T01:54:34;100423.09;;;17.44;97.87
28628;BME280;15815;46.760;19.604;2023-05-25T01:57:03;100442.78;;;17.51;99.06
28628;BME280;15815;46.760;19.604;2023-05-25T01:59:31;100438.13;;;17.45;98.43
28628;BME280;15815;46.760;19.604;2023-05-25T02:01:58;100434.47;;;17.44;98.40
28628;BME280;15815;46.760;19.604;2023-05-25T02:04:25;100435.72;;;17.43;98.51
28628;BME280;15815;46.760;19.604;2023-05-25T02:06:50;100437.72;;;17.30;99.61
28628;BME280;15815;46.760;19.604;2023-05-25T02:09:16;100445.34;;;17.33;100.00
28628;BME280;15815;46.760;19.604;2023-05-25T02:11:41;100433.13;;;17.20;100.00
28628;BME280;15815;46.760;19.604;2023-05-25T02:14:07;100442.00;;;17.22;100.00
28628;BME280;15815;46.760;19.604;2023-05-25T02:16:33;100443.69;;;17.19;100.00
28628;BME280;15815;46.760;19.604;2023-05-25T02:19:02;100430.69;;;17.06;100.00
28628;BME280;15815;46.760;19.604;2023-05-25T02:21:27;100419.88;;;17.01;100.00
28628;BME280;15815;46.760;19.604;2023-05-25T02:23:53;100430.88;;;16.98;100.00
28628;BME280;15815;46.760;19.604;2023-05-25T02:26:20;100435.91;;;16.91;100.00
28628;BME280;15815;46.760;19.604;2023-05-25T02:28:45;100426.44;;;16.81;100.00
28628;BME280;15815;46.760;19.604;2023-05-25T02:31:11;100440.53;;;16.85;100.00
28628;BME280;15815;46.760;19.604;2023-05-25T02:33:37;100447.28;;;16.91;100.00
28628;BME280;15815;46.760;19.604;2023-05-25T02:36:03;100450.56;;;16.89;100.00
28628;BME280;15815;46.760;19.604;2023-05-25T02:38:29;100454.84;;;16.81;100.00
28628;BME280;15815;46.760;19.604;2023-05-25T02:40:55;100451.81;;;16.72;100.00
28628;BME280;15815;46.760;19.604;2023-05-25T02:43:20;100434.56;;;16.63;100.00
28628;BME280;15815;46.760;19.604;2023-05-25T02:45:49;100460.34;;;16.72;100.00
28628;BME280;15815;46.760;19.604;2023-05-25T02:48:18;100446.63;;;16.51;100.00
28628;BME280;15815;46.760;19.604;2023-05-25T02:50:44;100465.09;;;16.59;100.00
28628;BME280;15815;46.760;19.604;2023-05-25T02:53:09;100450.38;;;16.48;100.00
28628;BME280;15815;46.760;19.604;2023-05-25T02:55:38;100476.53;;;16.55;100.00
28628;BME280;15815;46.760;19.604;2023-05-25T02:58:04;100452.09;;;16.42;100.00
28628;BME280;15815;46.760;19.604;2023-05-25T03:00:30;100472.63;;;16.49;100.00
28628;BME280;15815;46.760;19.604;2023-05-25T03:02:55;100469.34;;;16.51;100.00
28628;BME280;15815;46.760;19.604;2023-05-25T03:05:21;100483.09;;;16.52;100.00
28628;BME280;15815;46.760;19.604;2023-05-25T03:07:47;100470.56;;;16.50;100.00
28628;BME280;15815;46.760;19.604;2023-05-25T03:10:13;100456.34;;;16.33;100.00
28628;BME280;15815;46.760;19.604;2023-05-25T03:12:39;100457.34;;;16.43;100.00
28628;BME280;15815;46.760;19.604;2023-05-25T03:15:13;100475.00;;;16.51;99.79
28628;BME280;15815;46.760;19.604;2023-05-25T03:17:39;100473.31;;;16.53;100.00
28628;BME280;15815;46.760;19.604;2023-05-25T03:20:05;100462.06;;;16.50;99.84
28628;BME280;15815;46.760;19.604;2023-05-25T03:22:31;100466.06;;;16.52;99.58
28628;BME280;15815;46.760;19.604;2023-05-25T03:24:57;100464.28;;;16.58;99.39
28628;BME280;15815;46.760;19.604;2023-05-25T03:27:23;100480.34;;;16.65;99.20
28628;BME280;15815;46.760;19.604;2023-05-25T03:29:48;100473.31;;;16.53;100.00
28628;BME280;15815;46.760;19.604;2023-05-25T03:32:14;100472.53;;;16.53;100.00
28628;BME280;15815;46.760;19.604;2023-05-25T03:34:40;100471.72;;;16.52;99.59
28628;BME280;15815;46.760;19.604;2023-05-25T03:37:08;100463.22;;;16.52;100.00
28628;BME280;15815;46.760;19.604;2023-05-25T03:39:34;100472.88;;;16.55;100.00
28628;BME280;15815;46.760;19.604;2023-05-25T03:42:01;100497.75;;;16.67;100.00
28628;BME280;15815;46.760;19.604;2023-05-25T03:44:27;100486.75;;;16.69;100.00
28628;BME280;15815;46.760;19.604;2023-05-25T03:46:53;100503.97;;;16.94;99.05
28628;BME280;15815;46.760;19.604;2023-05-25T03:49:21;100507.00;;;17.04;98.19
28628;BME280;15815;46.760;19.604;2023-05-25T03:51:47;100487.03;;;16.91;98.85
28628;BME280;15815;46.760;19.604;2023-05-25T03:54:13;100498.63;;;17.13;98.05
28628;BME280;15815;46.760;19.604;2023-05-25T03:56:38;100507.16;;;17.13;99.64
28628;BME280;15815;46.760;19.604;2023-05-25T03:59:04;100508.91;;;17.23;99.61
28628;BME280;15815;46.760;19.604;2023-05-25T04:01:30;100506.06;;;17.23;98.28
28628;BME280;15815;46.760;19.604;2023-05-25T04:03:56;100528.59;;;17.46;97.45
28628;BME280;15815;46.760;19.604;2023-05-25T04:06:22;100521.75;;;17.44;97.00
28628;BME280;15815;46.760;19.604;2023-05-25T04:08:47;100531.88;;;17.61;96.34
28628;BME280;15815;46.760;19.604;2023-05-25T04:11:13;100521.03;;;17.56;96.55
28628;BME280;15815;46.760;19.604;2023-05-25T04:13:39;100507.28;;;17.54;96.22
28628;BME280;15815;46.760;19.604;2023-05-25T04:16:06;100518.09;;;17.59;96.29
28628;BME280;15815;46.760;19.604;2023-05-25T04:18:31;100522.25;;;17.71;96.39
28628;BME280;15815;46.760;19.604;2023-05-25T04:20:57;100519.56;;;17.80;95.84
28628;BME280;15815;46.760;19.604;2023-05-25T04:23:23;100528.50;;;18.08;95.27
28628;BME280;15815;46.760;19.604;2023-05-25T04:25:48;100522.63;;;18.15;94.29
28628;BME280;15815;46.760;19.604;2023-05-25T04:28:14;100535.16;;;18.17;93.75
28628;BME280;15815;46.760;19.604;2023-05-25T04:30:43;100528.13;;;18.35;92.66
28628;BME280;15815;46.760;19.604;2023-05-25T04:33:09;100512.34;;;18.84;90.36
28628;BME280;15815;46.760;19.604;2023-05-25T04:35:35;100523.97;;;19.50;88.80
28628;BME280;15815;46.760;19.604;2023-05-25T04:38:00;100527.47;;;19.89;88.23
28628;BME280;15815;46.760;19.604;2023-05-25T04:40:26;100526.75;;;19.97;85.42
28628;BME280;15815;46.760;19.604;2023-05-25T04:42:52;100521.38;;;19.99;81.14
28628;BME280;15815;46.760;19.604;2023-05-25T04:45:17;100542.94;;;20.44;81.44
28628;BME280;15815;46.760;19.604;2023-05-25T04:47:43;100552.16;;;20.79;79.73
28628;BME280;15815;46.760;19.604;2023-05-25T04:50:12;100534.31;;;20.66;78.69
28628;BME280;15815;46.760;19.604;2023-05-25T04:52:40;100524.94;;;20.56;79.36
28628;BME280;15815;46.760;19.604;2023-05-25T04:55:09;100548.38;;;21.32;77.34
28628;BME280;15815;46.760;19.604;2023-05-25T04:57:34;100539.50;;;21.39;77.23
28628;BME280;15815;46.760;19.604;2023-05-25T05:00:00;100542.09;;;21.92;77.30
28628;BME280;15815;46.760;19.604;2023-05-25T05:02:27;100546.53;;;22.11;73.22
28628;BME280;15815;46.760;19.604;2023-05-25T05:04:52;100555.56;;;22.37;72.25
28628;BME280;15815;46.760;19.604;2023-05-25T05:07:21;100546.44;;;22.57;70.18
28628;BME280;15815;46.760;19.604;2023-05-25T05:09:46;100565.16;;;22.85;69.33
28628;BME280;15815;46.760;19.604;2023-05-25T05:12:12;100547.34;;;23.14;70.38
28628;BME280;15815;46.760;19.604;2023-05-25T05:14:37;100561.88;;;23.10;67.75
28628;BME280;15815;46.760;19.604;2023-05-25T05:17:03;100546.25;;;23.11;66.68
28628;BME280;15815;46.760;19.604;2023-05-25T05:19:30;100551.16;;;23.44;66.16
28628;BME280;15815;46.760;19.604;2023-05-25T05:21:58;100553.91;;;23.86;67.85
28628;BME280;15815;46.760;19.604;2023-05-25T05:24:24;100568.84;;;24.29;66.48
28628;BME280;15815;46.760;19.604;2023-05-25T05:26:50;100578.47;;;24.41;63.78
28628;BME280;15815;46.760;19.604;2023-05-25T05:29:16;100582.63;;;24.69;63.96
28628;BME280;15815;46.760;19.604;2023-05-25T05:31:42;100565.69;;;24.71;63.12
28628;BME280;15815;46.760;19.604;2023-05-25T05:34:07;100571.59;;;24.82;62.15
28628;BME280;15815;46.760;19.604;2023-05-25T05:36:33;100586.66;;;24.92;62.78
28628;BME280;15815;46.760;19.604;2023-05-25T05:38:59;100582.88;;;25.15;61.39
28628;BME280;15815;46.760;19.604;2023-05-25T05:41:25;100591.53;;;25.50;59.29
28628;BME280;15815;46.760;19.604;2023-05-25T05:46:16;100593.34;;;25.88;56.51
28628;BME280;15815;46.760;19.604;2023-05-25T05:48:41;100586.50;;;25.31;57.67
28628;BME280;15815;46.760;19.604;2023-05-25T05:51:07;100585.50;;;24.99;56.37
28628;BME280;15815;46.760;19.604;2023-05-25T05:53:33;100591.81;;;24.88;57.36
28628;BME280;15815;46.760;19.604;2023-05-25T05:55:58;100596.41;;;24.94;57.76
28628;BME280;15815;46.760;19.604;2023-05-25T05:58:25;100596.09;;;25.07;56.72
28628;BME280;15815;46.760;19.604;2023-05-25T06:00:52;100599.91;;;25.19;56.19
28628;BME280;15815;46.760;19.604;2023-05-25T06:03:23;100586.50;;;25.31;56.07
28628;BME280;15815;46.760;19.604;2023-05-25T06:05:49;100595.09;;;25.80;55.51
28628;BME280;15815;46.760;19.604;2023-05-25T06:08:15;100588.94;;;26.34;54.09
28628;BME280;15815;46.760;19.604;2023-05-25T06:10:40;100594.47;;;26.63;54.00
28628;BME280;15815;46.760;19.604;2023-05-25T06:13:06;100588.13;;;26.59;52.57
28628;BME280;15815;46.760;19.604;2023-05-25T06:15:32;100601.03;;;26.38;52.48
28628;BME280;15815;46.760;19.604;2023-05-25T06:17:58;100606.50;;;26.36;52.61
28628;BME280;15815;46.760;19.604;2023-05-25T06:20:24;100612.69;;;26.80;50.85
28628;BME280;15815;46.760;19.604;2023-05-25T06:22:49;100600.31;;;27.00;50.72
28628;BME280;15815;46.760;19.604;2023-05-25T06:25:15;100591.78;;;27.17;50.38
28628;BME280;15815;46.760;19.604;2023-05-25T06:27:41;100599.84;;;27.07;51.68
28628;BME280;15815;46.760;19.604;2023-05-25T06:30:07;100616.69;;;28.00;49.92
28628;BME280;15815;46.760;19.604;2023-05-25T06:32:33;100598.97;;;28.41;48.93
28628;BME280;15815;46.760;19.604;2023-05-25T06:34:59;100606.06;;;28.45;48.91
28628;BME280;15815;46.760;19.604;2023-05-25T06:37:26;100614.53;;;28.66;47.78
28628;BME280;15815;46.760;19.604;2023-05-25T06:39:52;100612.38;;;28.38;47.67
28628;BME280;15815;46.760;19.604;2023-05-25T06:42:17;100599.22;;;28.37;45.83
28628;BME280;15815;46.760;19.604;2023-05-25T06:44:43;100608.00;;;29.04;45.88
28628;BME280;15815;46.760;19.604;2023-05-25T06:47:09;100611.91;;;29.23;44.19
28628;BME280;15815;46.760;19.604;2023-05-25T06:49:34;100599.31;;;29.10;45.10
28628;BME280;15815;46.760;19.604;2023-05-25T06:52:00;100614.31;;;29.08;45.51
28628;BME280;15815;46.760;19.604;2023-05-25T06:54:26;100614.50;;;29.66;45.46
28628;BME280;15815;46.760;19.604;2023-05-25T06:56:52;100619.00;;;29.56;43.98
28628;BME280;15815;46.760;19.604;2023-05-25T06:59:18;100628.78;;;30.28;44.18
28628;BME280;15815;46.760;19.604;2023-05-25T07:01:47;100622.22;;;30.22;43.00
28628;BME280;15815;46.760;19.604;2023-05-25T07:04:14;100616.66;;;30.24;43.06
28628;BME280;15815;46.760;19.604;2023-05-25T07:06:39;100615.34;;;30.71;42.58
28628;BME280;15815;46.760;19.604;2023-05-25T07:09:05;100612.59;;;31.15;42.78
28628;BME280;15815;46.760;19.604;2023-05-25T07:11:33;100618.69;;;30.81;40.68
28628;BME280;15815;46.760;19.604;2023-05-25T07:13:59;100625.97;;;30.93;42.18
28628;BME280;15815;46.760;19.604;2023-05-25T07:16:25;100623.16;;;31.18;42.97
28628;BME280;15815;46.760;19.604;2023-05-25T07:18:51;100623.84;;;31.29;42.26
28628;BME280;15815;46.760;19.604;2023-05-25T07:21:17;100629.06;;;31.36;43.17
28628;BME280;15815;46.760;19.604;2023-05-25T07:23:43;100612.19;;;31.59;42.16
28628;BME280;15815;46.760;19.604;2023-05-25T07:26:08;100625.88;;;31.64;43.37
28628;BME280;15815;46.760;19.604;2023-05-25T07:28:34;100642.63;;;32.45;40.33
28628;BME280;15815;46.760;19.604;2023-05-25T07:31:00;100617.06;;;32.38;39.29
28628;BME280;15815;46.760;19.604;2023-05-25T07:33:26;100633.94;;;32.58;38.97
28628;BME280;15815;46.760;19.604;2023-05-25T07:35:52;100626.78;;;32.78;38.31
28628;BME280;15815;46.760;19.604;2023-05-25T07:38:18;100620.28;;;33.04;38.96
28628;BME280;15815;46.760;19.604;2023-05-25T07:40:44;100624.66;;;32.59;37.19
28628;BME280;15815;46.760;19.604;2023-05-25T07:43:09;100628.03;;;32.82;38.33
28628;BME280;15815;46.760;19.604;2023-05-25T07:45:35;100633.13;;;33.27;39.70
28628;BME280;15815;46.760;19.604;2023-05-25T07:48:01;100643.22;;;33.26;39.61
28628;BME280;15815;46.760;19.604;2023-05-25T07:50:26;100621.09;;;33.63;39.90
28628;BME280;15815;46.760;19.604;2023-05-25T07:52:52;100628.16;;;33.67;39.00
28628;BME280;15815;46.760;19.604;2023-05-25T07:55:18;100648.28;;;33.97;39.45
28628;BME280;15815;46.760;19.604;2023-05-25T07:57:43;100639.81;;;34.20;39.10
28628;BME280;15815;46.760;19.604;2023-05-25T08:00:09;100640.38;;;34.19;38.88
28628;BME280;15815;46.760;19.604;2023-05-25T08:02:35;100628.53;;;34.64;38.88
28628;BME280;15815;46.760;19.604;2023-05-25T08:05:01;100621.81;;;34.90;38.22
28628;BME280;15815;46.760;19.604;2023-05-25T08:07:27;100646.09;;;34.85;36.99
28628;BME280;15815;46.760;19.604;2023-05-25T08:09:53;100639.09;;;35.29;37.05
28628;BME280;15815;46.760;19.604;2023-05-25T08:12:19;100641.34;;;34.95;39.32
28628;BME280;15815;46.760;19.604;2023-05-25T08:14:44;100640.41;;;35.00;39.01
28628;BME280;15815;46.760;19.604;2023-05-25T08:17:10;100629.22;;;34.91;35.75
28628;BME280;15815;46.760;19.604;2023-05-25T08:19:36;100637.50;;;35.42;37.71
28628;BME280;15815;46.760;19.604;2023-05-25T08:22:01;100649.19;;;35.42;37.96
28628;BME280;15815;46.760;19.604;2023-05-25T08:24:27;100634.50;;;35.83;36.89
28628;BME280;15815;46.760;19.604;2023-05-25T08:26:53;100633.56;;;35.18;37.73
28628;BME280;15815;46.760;19.604;2023-05-25T08:29:18;100639.72;;;35.07;36.81
28628;BME280;15815;46.760;19.604;2023-05-25T08:31:44;100637.75;;;35.30;36.91
28628;BME280;15815;46.760;19.604;2023-05-25T08:34:10;100629.25;;;35.61;36.46
28628;BME280;15815;46.760;19.604;2023-05-25T08:36:36;100644.56;;;36.03;34.11
28628;BME280;15815;46.760;19.604;2023-05-25T08:39:02;100637.00;;;34.75;35.42
28628;BME280;15815;46.760;19.604;2023-05-25T08:41:28;100653.53;;;35.48;35.66
28628;BME280;15815;46.760;19.604;2023-05-25T08:43:54;100655.63;;;35.69;34.34
28628;BME280;15815;46.760;19.604;2023-05-25T08:46:29;100638.34;;;35.78;33.78
28628;BME280;15815;46.760;19.604;2023-05-25T08:49:11;100644.78;;;36.05;33.60
28628;BME280;15815;46.760;19.604;2023-05-25T08:51:50;100637.03;;;36.67;32.65
28628;BME280;15815;46.760;19.604;2023-05-25T08:54:23;100648.16;;;36.17;31.69
28628;BME280;15815;46.760;19.604;2023-05-25T08:56:54;100652.81;;;36.12;34.32
28628;BME280;15815;46.760;19.604;2023-05-25T09:01:51;100648.88;;;37.12;33.59
28628;BME280;15815;46.760;19.604;2023-05-25T09:04:19;100649.28;;;36.14;32.00
28628;BME280;15815;46.760;19.604;2023-05-25T09:06:45;100651.94;;;36.76;33.40
28628;BME280;15815;46.760;19.604;2023-05-25T09:09:11;100653.34;;;36.83;32.42
28628;BME280;15815;46.760;19.604;2023-05-25T09:11:38;100651.16;;;36.76;32.66
28628;BME280;15815;46.760;19.604;2023-05-25T09:14:06;100643.81;;;37.89;33.07
28628;BME280;15815;46.760;19.604;2023-05-25T09:16:32;100652.03;;;37.83;32.42
28628;BME280;15815;46.760;19.604;2023-05-25T09:19:01;100652.81;;;37.84;32.58
28628;BME280;15815;46.760;19.604;2023-05-25T09:21:27;100654.22;;;36.63;33.21
28628;BME280;15815;46.760;19.604;2023-05-25T09:23:53;100657.50;;;37.64;32.41
28628;BME280;15815;46.760;19.604;2023-05-25T09:26:19;100652.31;;;38.25;30.85
28628;BME280;15815;46.760;19.604;2023-05-25T09:28:46;100647.66;;;38.07;30.41
28628;BME280;15815;46.760;19.604;2023-05-25T09:31:15;100636.03;;;38.40;30.88
28628;BME280;15815;46.760;19.604;2023-05-25T09:33:44;100653.84;;;38.42;29.85
28628;BME280;15815;46.760;19.604;2023-05-25T09:36:11;100649.28;;;37.78;30.56
28628;BME280;15815;46.760;19.604;2023-05-25T09:38:39;100639.66;;;38.00;29.32
28628;BME280;15815;46.760;19.604;2023-05-25T09:41:04;100651.50;;;38.40;30.52
28628;BME280;15815;46.760;19.604;2023-05-25T09:43:31;100648.84;;;36.38;31.03
28628;BME280;15815;46.760;19.604;2023-05-25T09:45:57;100653.50;;;36.77;30.81
28628;BME280;15815;46.760;19.604;2023-05-25T09:48:23;100652.59;;;37.21;28.62
28628;BME280;15815;46.760;19.604;2023-05-25T09:50:50;100638.31;;;35.99;29.72
28628;BME280;15815;46.760;19.604;2023-05-25T09:53:15;100644.81;;;34.59;31.76
28628;BME280;15815;46.760;19.604;2023-05-25T09:55:42;100663.09;;;35.49;32.09
28628;BME280;15815;46.760;19.604;2023-05-25T09:58:08;100650.50;;;36.18;32.51
28628;BME280;15815;46.760;19.604;2023-05-25T10:00:34;100665.16;;;35.41;33.81
28628;BME280;15815;46.760;19.604;2023-05-25T10:02:59;100653.59;;;35.14;34.44
28628;BME280;15815;46.760;19.604;2023-05-25T10:05:25;100650.59;;;34.86;34.32
28628;BME280;15815;46.760;19.604;2023-05-25T10:07:52;100662.03;;;34.36;35.58
28628;BME280;15815;46.760;19.604;2023-05-25T10:10:18;100657.78;;;34.37;35.49
28628;BME280;15815;46.760;19.604;2023-05-25T10:12:44;100649.59;;;35.04;33.65
28628;BME280;15815;46.760;19.604;2023-05-25T10:15:11;100655.31;;;34.28;34.92
28628;BME280;15815;46.760;19.604;2023-05-25T10:17:43;100642.16;;;33.42;34.62
28628;BME280;15815;46.760;19.604;2023-05-25T10:20:09;100638.69;;;32.80;35.75
28628;BME280;15815;46.760;19.604;2023-05-25T10:22:43;100633.47;;;32.54;36.22
28628;BME280;15815;46.760;19.604;2023-05-25T10:27:58;100646.25;;;33.92;36.58
28628;BME280;15815;46.760;19.604;2023-05-25T10:30:26;100645.16;;;34.56;35.04
28628;BME280;15815;46.760;19.604;2023-05-25T10:32:55;100641.97;;;33.93;35.98
28628;BME280;15815;46.760;19.604;2023-05-25T10:35:24;100633.06;;;33.01;37.19
28628;BME280;15815;46.760;19.604;2023-05-25T10:37:51;100631.91;;;32.53;34.58
28628;BME280;15815;46.760;19.604;2023-05-25T10:40:21;100618.72;;;31.90;37.06
28628;BME280;15815;46.760;19.604;2023-05-25T10:42:50;100632.81;;;32.05;37.50
28628;BME280;15815;46.760;19.604;2023-05-25T10:45:16;100636.97;;;31.90;37.82
28628;BME280;15815;46.760;19.604;2023-05-25T10:47:43;100619.25;;;32.32;37.00
28628;BME280;15815;46.760;19.604;2023-05-25T10:50:22;100632.44;;;32.14;38.18
28628;BME280;15815;46.760;19.604;2023-05-25T10:52:58;100621.44;;;32.07;37.39
28628;BME280;15815;46.760;19.604;2023-05-25T10:55:24;100602.56;;;31.46;38.13
28628;BME280;15815;46.760;19.604;2023-05-25T10:58:15;100620.75;;;31.46;37.49
28628;BME280;15815;46.760;19.604;2023-05-25T11:00:41;100591.63;;;31.33;38.91
28628;BME280;15815;46.760;19.604;2023-05-25T11:03:07;100616.53;;;31.96;39.54
28628;BME280;15815;46.760;19.604;2023-05-25T11:05:35;100613.78;;;31.85;37.46
28628;BME280;15815;46.760;19.604;2023-05-25T11:08:08;100616.50;;;31.77;38.13
28628;BME280;15815;46.760;19.604;2023-05-25T11:16:21;100607.06;;;31.71;38.35
28628;BME280;15815;46.760;19.604;2023-05-25T11:18:56;100581.50;;;31.88;37.44
28628;BME280;15815;46.760;19.604;2023-05-25T11:21:39;100595.31;;;31.03;36.55
28628;BME280;15815;46.760;19.604;2023-05-25T11:24:17;100590.03;;;30.66;37.78
28628;BME280;15815;46.760;19.604;2023-05-25T11:26:54;100578.31;;;30.48;38.89
28628;BME280;15815;46.760;19.604;2023-05-25T11:29:20;100593.56;;;30.54;38.92
28628;BME280;15815;46.760;19.604;2023-05-25T11:31:54;100575.22;;;30.75;38.63
28628;BME280;15815;46.760;19.604;2023-05-25T11:34:23;100573.00;;;31.17;37.88
28628;BME280;15815;46.760;19.604;2023-05-25T11:36:54;100580.47;;;31.61;40.71
28628;BME280;15815;46.760;19.604;2023-05-25T11:39:20;100568.94;;;31.01;38.76
28628;BME280;15815;46.760;19.604;2023-05-25T11:41:52;100560.56;;;30.57;38.66
28628;BME280;15815;46.760;19.604;2023-05-25T11:44:29;100563.72;;;30.59;39.23
28628;BME280;15815;46.760;19.604;2023-05-25T11:46:56;100557.31;;;30.30;39.75
28628;BME280;15815;46.760;19.604;2023-05-25T11:49:23;100577.50;;;30.06;39.63
28628;BME280;15815;46.760;19.604;2023-05-25T11:51:49;100554.25;;;30.11;39.64
28628;BME280;15815;46.760;19.604;2023-05-25T11:54:28;100560.34;;;30.13;37.64
28628;BME280;15815;46.760;19.604;2023-05-25T11:56:55;100552.16;;;30.12;38.06
28628;BME280;15815;46.760;19.604;2023-05-25T11:59:22;100550.66;;;29.94;39.97
28628;BME280;15815;46.760;19.604;2023-05-25T12:01:56;100569.94;;;29.80;40.97
28628;BME280;15815;46.760;19.604;2023-05-25T12:04:22;100562.19;;;29.36;42.41
28628;BME280;15815;46.760;19.604;2023-05-25T12:06:48;100552.16;;;29.37;41.63
28628;BME280;15815;46.760;19.604;2023-05-25T12:09:20;100556.38;;;29.36;41.83
28628;BME280;15815;46.760;19.604;2023-05-25T12:11:47;100541.91;;;29.25;42.02
28628;BME280;15815;46.760;19.604;2023-05-25T12:14:16;100558.75;;;29.38;42.73
28628;BME280;15815;46.760;19.604;2023-05-25T12:16:42;100546.06;;;29.63;42.30
28628;BME280;15815;46.760;19.604;2023-05-25T12:19:09;100563.72;;;29.60;42.48
28628;BME280;15815;46.760;19.604;2023-05-25T12:21:36;100540.69;;;29.84;42.28
28628;BME280;15815;46.760;19.604;2023-05-25T12:24:02;100563.50;;;30.16;42.21
28628;BME280;15815;46.760;19.604;2023-05-25T12:26:28;100543.25;;;29.99;41.28
28628;BME280;15815;46.760;19.604;2023-05-25T12:28:57;100556.22;;;29.87;42.10
28628;BME280;15815;46.760;19.604;2023-05-25T12:31:28;100548.03;;;29.85;42.71
28628;BME280;15815;46.760;19.604;2023-05-25T12:34:11;100554.75;;;29.63;43.46
28628;BME280;15815;46.760;19.604;2023-05-25T12:39:06;100530.03;;;29.51;43.86
28628;BME280;15815;46.760;19.604;2023-05-25T12:44:19;100524.97;;;29.68;42.96
28628;BME280;15815;46.760;19.604;2023-05-25T12:46:44;100527.94;;;29.40;44.05
28628;BME280;15815;46.760;19.604;2023-05-25T12:49:24;100536.56;;;29.68;44.94
28628;BME280;15815;46.760;19.604;2023-05-25T12:51:53;100530.16;;;29.87;44.14
28628;BME280;15815;46.760;19.604;2023-05-25T12:54:40;100529.69;;;29.71;44.22
28628;BME280;15815;46.760;19.604;2023-05-25T12:57:08;100520.66;;;29.11;43.39
28628;BME280;15815;46.760;19.604;2023-05-25T12:59:34;100528.84;;;28.90;43.56
28628;BME280;15815;46.760;19.604;2023-05-25T13:02:04;100508.84;;;28.65;43.51
28628;BME280;15815;46.760;19.604;2023-05-25T13:04:29;100508.31;;;28.55;43.13
28628;BME280;15815;46.760;19.604;2023-05-25T13:06:55;100512.78;;;28.39;43.31